Terminal Aerodrome Forecast
Issued by NWS Central Illinois

Home | Current Version | Previous Version | Text Only | Print | Product List | Glossary On
Versions: 1 2 3 4 5 6 7 8 9 10 11 12 13 14 15 16 17 18 19 20 21 22 23 24
836
FTUS43 KILX 301425 AAA
TAFPIA
TAF AMD
KPIA 301425Z 3014/3112 07012KT 2SM -RA BR VCTS SCT008CB OVC015
     FM301700 06008KT 6SM BR VCSH OVC015
     FM302000 04007KT 4SM BR VCTS OVC008CB
     FM302300 02006KT 3SM BR VCSH OVC008=

USA.gov is the U.S. government's official web portal to all federal, state and local government web resources and services.